Main page
METAR-TAF:

METAR-TAF

Airports :

Mount Vernon Airport

Mount Vernon, Illinois, United States

latitude: 38-19N, longitude: 088-52W, elevation: 479 ft

Current weather observation

The report was made 41 minutes ago, at 06:56 UTC
Calm wind
Temperature 36°F
Humidity 100%
Pressure 30.21 in. Hg
Visibility: 10 miles

METAR: KMVN 220656Z AUTO 00000KT 10SM 02/02 A3021 RMK AO2 SLP234 T00170017 FZRANO $

Time: 02:37 (07:37 UTC)

Forecast

The report was made 2 hours and 17 minutes ago, at 05:20 UTC
Forecast valid from 22 at 06 UTC to 23 at 06 UTC
Wind 0 mph from the North
Visibility: 6 miles
Clear sky
From 22 at 1500 UTC
Wind 14 mph from the South/Southwest
Visibility: 6 miles
Few clouds at a height of 25000 ft
From 23 at 0000 UTC
Wind 8 mph from the South
Visibility: 6 miles
Few clouds at a height of 20000 ft

TAF: KMVN 220520Z 2206/2306 00000KT P6SM SKC FM221500 21012KT P6SM FEW250 FM230000 19007KT P6SM FEW200

Weather observations and forecasts of more than 4000 airports (METAR and TAF reports).

The available stations are represented by yellow and red dots on the map.

Hover mouse over dot to see the name of the station.

Then click to see weather observations and forecasts.

To change the map : click on the green buttons with a black cross to zoom in, on the green button with a dash to zoom out, or on the green arrows for adjacent maps.


METAR-TAF: